createdAt,value
2022-10-12T00:02:06.792Z,34.60
2022-10-12T00:04:35.545Z,36.00
2022-10-12T00:07:18.618Z,34.20
2022-10-12T00:10:00.920Z,44.50
2022-10-12T00:12:29.638Z,31.60
2022-10-12T00:15:13.523Z,43.80
2022-10-12T00:17:56.051Z,42.80
2022-10-12T00:20:24.988Z,30.70
2022-10-12T00:22:54.002Z,40.10
2022-10-12T00:25:38.661Z,37.40
2022-10-12T00:28:21.172Z,39.00
2022-10-12T00:30:50.609Z,43.10
2022-10-12T00:33:19.618Z,35.90
2022-10-12T00:36:12.649Z,40.00
2022-10-12T00:38:56.749Z,37.60
2022-10-12T00:41:29.697Z,40.40
2022-10-12T00:44:44.456Z,32.30
2022-10-12T00:47:34.805Z,33.30
2022-10-12T00:50:11.349Z,34.20
2022-10-12T00:53:14.588Z,39.80
2022-10-12T00:56:01.624Z,37.40
2022-10-12T00:58:35.097Z,33.20
2022-10-12T01:01:05.457Z,45.50
2022-10-12T01:03:36.546Z,40.60
2022-10-12T01:06:20.178Z,34.80
2022-10-12T01:09:04.168Z,37.90
2022-10-12T01:11:46.500Z,39.40
2022-10-12T01:14:28.966Z,36.80
2022-10-12T01:17:20.267Z,37.70
2022-10-12T01:20:27.708Z,33.50
2022-10-12T01:23:16.206Z,37.70
2022-10-12T01:26:23.087Z,39.50
2022-10-12T01:28:55.166Z,34.00
2022-10-12T01:31:39.371Z,41.70
2022-10-12T01:34:48.065Z,48.10
2022-10-12T01:38:08.545Z,41.00
2022-10-12T01:41:09.821Z,43.10
2022-10-12T01:43:53.151Z,37.80
2022-10-12T01:46:21.628Z,45.40
2022-10-12T01:49:04.165Z,39.00
2022-10-12T01:52:04.440Z,42.20
2022-10-12T01:54:52.812Z,39.60
2022-10-12T01:58:12.811Z,31.50
2022-10-12T02:01:24.520Z,49.70
2022-10-12T02:04:15.284Z,44.40
2022-10-12T02:07:05.996Z,44.20
2022-10-12T02:09:37.890Z,41.80
2022-10-12T02:12:29.490Z,40.40
2022-10-12T02:15:03.419Z,46.50
2022-10-12T02:17:49.905Z,44.30
2022-10-12T02:20:23.432Z,48.00
2022-10-12T02:22:53.747Z,48.60
2022-10-12T02:25:26.907Z,40.60
2022-10-12T02:28:02.870Z,38.70
2022-10-12T02:30:42.874Z,41.00
2022-10-12T02:33:35.325Z,50.50
2022-10-12T02:36:12.004Z,43.60
2022-10-12T02:39:05.811Z,40.30
2022-10-12T02:41:41.352Z,36.70
2022-10-12T02:44:14.233Z,37.90
2022-10-12T02:46:45.806Z,47.40
2022-10-12T02:49:30.276Z,45.90
2022-10-12T02:52:12.593Z,35.90
2022-10-12T02:54:42.170Z,31.20
2022-10-12T02:57:24.665Z,44.30
2022-10-12T03:00:08.440Z,40.80
2022-10-12T03:02:37.248Z,47.90
2022-10-12T03:05:19.565Z,40.30
2022-10-12T03:07:48.336Z,31.70
2022-10-12T03:10:31.151Z,37.00
2022-10-12T03:13:13.658Z,34.80
2022-10-12T03:15:42.516Z,38.50
2022-10-12T03:18:11.392Z,38.70
2022-10-12T03:20:53.814Z,39.20
2022-10-12T03:23:36.276Z,37.50
2022-10-12T03:26:18.890Z,37.00
2022-10-12T03:29:01.625Z,37.50
2022-10-12T03:31:30.717Z,34.80
2022-10-12T03:34:13.143Z,32.30
2022-10-12T03:36:56.013Z,39.50
2022-10-12T03:39:25.117Z,37.50
2022-10-12T03:41:54.162Z,41.80
2022-10-12T03:44:23.054Z,54.00
2022-10-12T03:46:52.087Z,43.40
2022-10-12T03:49:21.821Z,31.70
2022-10-12T03:52:04.706Z,37.60
2022-10-12T03:54:33.770Z,34.70
2022-10-12T03:57:02.476Z,34.40
2022-10-12T03:59:45.436Z,36.90
2022-10-12T04:02:27.926Z,35.90
2022-10-12T04:04:56.647Z,32.70
2022-10-12T04:07:25.910Z,37.50
2022-10-12T04:10:08.563Z,27.20
2022-10-12T04:12:50.987Z,46.90
2022-10-12T04:17:49.628Z,36.30
2022-10-12T04:20:18.728Z,28.00
2022-10-12T04:23:01.212Z,37.20
2022-10-12T04:25:43.673Z,31.20
2022-10-12T04:28:26.159Z,45.00
2022-10-12T04:30:55.131Z,42.10
2022-10-12T04:33:24.176Z,26.50
2022-10-12T04:35:53.254Z,29.70
2022-10-12T04:38:35.713Z,26.80
2022-10-12T04:41:18.073Z,37.10
2022-10-12T04:43:46.964Z,36.00
2022-10-12T04:46:29.356Z,33.10
2022-10-12T04:49:12.329Z,32.10
2022-10-12T04:51:41.064Z,33.00
2022-10-12T04:54:23.783Z,33.30
2022-10-12T04:57:06.309Z,38.40
2022-10-12T04:59:35.034Z,43.50
2022-10-12T05:02:03.925Z,29.20
2022-10-12T05:07:01.936Z,42.30
2022-10-12T05:09:44.337Z,43.40
2022-10-12T05:12:13.312Z,46.00
2022-10-12T05:14:55.616Z,37.70
2022-10-12T05:17:38.795Z,37.90
2022-10-12T05:20:21.904Z,31.50
2022-10-12T05:22:51.433Z,32.40
2022-10-12T05:25:20.419Z,37.00
2022-10-12T05:28:03.031Z,30.20
2022-10-12T05:30:45.313Z,37.10
2022-10-12T05:33:14.097Z,51.20
2022-10-12T05:35:47.477Z,34.30
2022-10-12T05:38:31.269Z,40.20
2022-10-12T05:41:01.154Z,45.20
2022-10-12T05:43:43.536Z,28.20
2022-10-12T05:46:25.958Z,44.90
2022-10-12T05:48:54.744Z,40.50
2022-10-12T05:51:28.559Z,31.70
2022-10-12T05:54:11.049Z,32.60
2022-10-12T05:56:39.925Z,38.80
2022-10-12T05:59:09.073Z,33.90
2022-10-12T06:01:51.445Z,37.50
2022-10-12T06:04:20.369Z,34.90
2022-10-12T06:07:02.764Z,55.30
2022-10-12T06:09:31.684Z,49.50
2022-10-12T06:12:01.035Z,42.70
2022-10-12T06:14:29.787Z,31.40
2022-10-12T06:17:12.222Z,42.50
2022-10-12T06:19:41.142Z,48.70
2022-10-12T06:22:23.733Z,54.90
2022-10-12T06:24:52.482Z,40.90
2022-10-12T06:27:35.153Z,43.20
2022-10-12T06:30:04.900Z,44.10
2022-10-12T06:32:47.367Z,40.30
2022-10-12T06:35:29.751Z,43.10
2022-10-12T06:38:12.153Z,35.30
2022-10-12T06:40:54.512Z,51.80
2022-10-12T06:43:36.873Z,42.70
2022-10-12T06:46:05.987Z,38.20
2022-10-12T06:48:34.753Z,42.50
2022-10-12T06:51:17.301Z,49.00
2022-10-12T06:53:59.709Z,54.70
2022-10-12T06:56:28.707Z,47.90
2022-10-12T06:59:14.315Z,50.00
2022-10-12T07:01:43.288Z,38.50
2022-10-12T07:04:25.723Z,44.80
2022-10-12T07:06:54.800Z,33.00
2022-10-12T07:09:37.144Z,37.60
2022-10-12T07:12:19.483Z,42.70
2022-10-12T07:14:48.222Z,44.10
2022-10-12T07:17:17.326Z,40.80
2022-10-12T07:19:46.087Z,37.40
2022-10-12T07:22:14.686Z,41.90
2022-10-12T07:24:43.988Z,55.30
2022-10-12T07:27:26.588Z,45.20
2022-10-12T07:29:55.708Z,46.30
2022-10-12T07:32:24.301Z,45.50
2022-10-12T07:35:06.965Z,44.30
2022-10-12T07:37:50.005Z,40.20
2022-10-12T07:40:32.844Z,36.50
2022-10-12T07:43:16.867Z,38.70
2022-10-12T07:45:59.792Z,32.10
2022-10-12T07:48:29.115Z,38.40
2022-10-12T07:51:04.538Z,37.30
2022-10-12T07:53:39.951Z,44.30
2022-10-12T07:56:23.037Z,54.70
2022-10-12T07:58:54.763Z,27.90
2022-10-12T08:01:25.605Z,43.60
2022-10-12T08:04:08.300Z,39.80
2022-10-12T08:06:37.326Z,33.50
2022-10-12T08:09:06.383Z,30.00
2022-10-12T08:11:48.730Z,30.20
2022-10-12T08:14:17.531Z,40.30
2022-10-12T08:17:00.083Z,33.70
2022-10-12T08:19:32.985Z,42.90
2022-10-12T08:22:04.382Z,31.80
2022-10-12T08:24:35.392Z,33.00
2022-10-12T08:27:04.669Z,31.80
2022-10-12T08:29:33.496Z,28.40
2022-10-12T08:32:02.395Z,33.30
2022-10-12T08:34:31.514Z,32.20
2022-10-12T08:37:01.158Z,25.50
2022-10-12T08:39:43.722Z,25.20
2022-10-12T08:42:37.255Z,30.10
2022-10-12T08:45:44.590Z,32.30
2022-10-12T08:48:24.472Z,30.20
2022-10-12T08:56:49.251Z,25.00
2022-10-12T08:59:19.253Z,24.60
2022-10-12T09:02:40.474Z,22.40
2022-10-12T09:05:32.485Z,27.00
2022-10-12T09:08:53.024Z,30.00
2022-10-12T09:11:43.751Z,31.00
2022-10-12T09:14:33.624Z,25.30
2022-10-12T09:17:12.324Z,21.10
2022-10-12T09:19:43.459Z,30.30
2022-10-12T09:22:29.269Z,18.90
2022-10-12T09:24:59.719Z,27.60
2022-10-12T09:27:32.138Z,20.60
2022-10-12T09:30:06.146Z,22.10
2022-10-12T09:32:56.213Z,20.90
2022-10-12T09:35:47.705Z,28.60
2022-10-12T09:38:30.059Z,13.00
2022-10-12T09:41:30.702Z,35.10
2022-10-12T09:44:03.821Z,16.90
2022-10-12T09:46:42.187Z,24.00
2022-10-12T09:49:11.013Z,25.10
2022-10-12T09:51:40.100Z,21.30
2022-10-12T09:54:19.663Z,16.40
2022-10-12T09:57:03.545Z,17.50
2022-10-12T09:59:46.427Z,15.30
2022-10-12T10:02:24.266Z,28.00
2022-10-12T10:04:54.673Z,17.00
2022-10-12T10:07:37.674Z,17.00
2022-10-12T10:10:16.065Z,16.10
2022-10-12T10:13:01.729Z,19.00
2022-10-12T10:15:39.591Z,18.20
2022-10-12T10:18:25.873Z,16.30
2022-10-12T10:21:11.827Z,14.50
2022-10-12T10:23:51.758Z,18.50
2022-10-12T10:26:24.149Z,14.10
2022-10-12T10:29:15.886Z,15.80
2022-10-12T10:31:46.686Z,17.30
2022-10-12T10:34:18.837Z,15.40
2022-10-12T10:37:01.287Z,19.30
2022-10-12T10:39:46.977Z,20.50
2022-10-12T10:42:32.936Z,17.20
2022-10-12T10:45:08.916Z,16.10
2022-10-12T10:47:47.209Z,20.40
2022-10-12T10:50:39.997Z,19.50
2022-10-12T10:53:26.646Z,14.50
2022-10-12T10:56:25.287Z,8.90
2022-10-12T10:58:56.754Z,15.20
2022-10-12T11:01:44.605Z,14.50
2022-10-12T11:04:35.712Z,14.20
2022-10-12T11:07:17.193Z,11.70
2022-10-12T11:09:50.688Z,13.50
2022-10-12T11:12:36.245Z,8.30
2022-10-12T11:15:16.117Z,11.10
2022-10-12T11:17:50.493Z,14.00
2022-10-12T11:21:13.565Z,9.60
2022-10-12T11:24:06.487Z,12.40
2022-10-12T11:26:45.427Z,8.60
2022-10-12T11:29:28.630Z,20.10
2022-10-12T11:32:08.398Z,13.50
2022-10-12T11:34:55.738Z,11.80
2022-10-12T11:37:36.876Z,14.00
2022-10-12T11:40:23.566Z,9.30
2022-10-12T11:42:58.218Z,18.10
2022-10-12T11:45:32.511Z,9.40
2022-10-12T11:48:36.178Z,10.90
2022-10-12T11:51:06.236Z,16.10
2022-10-12T11:53:53.640Z,21.40
2022-10-12T11:56:43.815Z,20.30
2022-10-12T11:59:31.309Z,15.10
2022-10-12T12:02:38.302Z,12.60
2022-10-12T12:05:17.131Z,17.40
2022-10-12T12:07:55.572Z,12.80
2022-10-12T12:10:38.693Z,9.80
2022-10-12T12:13:24.528Z,12.40
2022-10-12T12:15:53.278Z,13.80
2022-10-12T12:18:24.940Z,9.80
2022-10-12T12:21:10.403Z,8.10
2022-10-12T12:23:56.552Z,12.00
2022-10-12T12:26:48.195Z,12.10
2022-10-12T12:29:31.382Z,10.70
2022-10-12T12:32:13.817Z,12.50
2022-10-12T12:35:00.047Z,10.40
2022-10-12T12:37:43.170Z,8.00
2022-10-12T12:40:24.604Z,10.70
2022-10-12T12:43:29.080Z,11.10
2022-10-12T12:46:13.972Z,13.10
2022-10-12T12:48:58.069Z,10.10
2022-10-12T12:51:43.488Z,16.70
2022-10-12T12:54:21.344Z,6.80
2022-10-12T12:57:08.857Z,9.10
2022-10-12T13:00:11.802Z,12.30
2022-10-12T13:03:01.715Z,10.60
2022-10-12T13:05:49.892Z,10.90
2022-10-12T13:08:50.850Z,11.20
2022-10-12T13:11:37.989Z,6.40
2022-10-12T13:14:44.666Z,9.50
2022-10-12T13:17:33.005Z,16.70
2022-10-12T13:20:19.145Z,12.30
2022-10-12T13:22:52.589Z,12.30
2022-10-12T13:25:46.347Z,8.70
2022-10-12T13:28:33.008Z,10.80
2022-10-12T13:31:14.050Z,14.00
2022-10-12T13:34:22.041Z,8.30
2022-10-12T13:37:03.339Z,28.10
2022-10-12T13:39:40.235Z,9.60
2022-10-12T13:42:12.409Z,14.10
2022-10-12T13:44:42.526Z,10.20
2022-10-12T13:47:33.095Z,12.70
2022-10-12T13:50:02.512Z,21.30
2022-10-12T13:52:34.512Z,15.50
2022-10-12T13:55:15.849Z,22.00
2022-10-12T13:57:58.210Z,16.40
2022-10-12T14:00:47.911Z,10.30
2022-10-12T14:03:16.743Z,11.90
2022-10-12T14:05:46.333Z,20.10
2022-10-12T14:08:20.349Z,17.10
2022-10-12T14:10:49.918Z,9.80
2022-10-12T14:13:40.398Z,8.80
2022-10-12T14:16:09.743Z,5.80
2022-10-12T14:18:52.542Z,8.40
2022-10-12T14:21:31.156Z,10.80
2022-10-12T14:24:10.672Z,12.90
2022-10-12T14:26:45.258Z,8.50
2022-10-12T14:29:36.199Z,17.70
2022-10-12T14:32:08.602Z,8.20
2022-10-12T14:35:19.428Z,13.70
2022-10-12T14:38:40.062Z,6.60
2022-10-12T14:41:43.547Z,10.50
2022-10-12T14:44:16.636Z,10.20
2022-10-12T14:47:16.775Z,11.90
2022-10-12T14:49:48.035Z,13.00
2022-10-12T14:52:44.256Z,9.70
2022-10-12T14:55:30.019Z,11.70
2022-10-12T14:57:59.986Z,15.10
2022-10-12T15:00:43.009Z,15.00
2022-10-12T15:03:12.248Z,18.90
2022-10-12T15:05:41.029Z,20.60
2022-10-12T15:08:09.854Z,29.10
2022-10-12T15:10:39.223Z,29.20
2022-10-12T15:13:12.206Z,35.80
2022-10-12T15:15:45.679Z,39.10
2022-10-12T15:18:28.370Z,40.80
2022-10-12T15:21:10.809Z,35.50
2022-10-12T15:23:40.124Z,29.90
2022-10-12T15:26:17.594Z,49.60
2022-10-12T15:29:00.089Z,42.10
2022-10-12T15:31:29.160Z,56.50
2022-10-12T15:34:15.587Z,64.70
2022-10-12T15:36:44.232Z,54.40
2022-10-12T15:39:13.134Z,47.40
2022-10-12T15:41:42.173Z,42.70
2022-10-12T15:44:16.147Z,46.50
2022-10-12T15:47:00.911Z,40.30
2022-10-12T15:49:43.307Z,43.40
2022-10-12T15:52:25.594Z,40.20
2022-10-12T15:54:54.136Z,37.00
2022-10-12T15:57:37.076Z,31.40
2022-10-12T16:00:22.309Z,29.60
2022-10-12T16:02:51.082Z,31.90
2022-10-12T16:05:24.181Z,28.80
2022-10-12T16:07:53.259Z,39.00
2022-10-12T16:10:39.955Z,42.50
2022-10-12T16:13:22.469Z,93.80
2022-10-12T16:15:51.867Z,113.60
2022-10-12T16:18:20.848Z,94.80
2022-10-12T16:21:03.595Z,48.10
2022-10-12T16:23:34.631Z,37.90
2022-10-12T16:26:06.630Z,25.10
2022-10-12T16:28:36.452Z,38.00
2022-10-12T16:31:15.885Z,33.00
2022-10-12T16:33:58.445Z,34.50
2022-10-12T16:36:27.109Z,66.00
2022-10-12T16:39:09.441Z,43.10
2022-10-12T16:41:52.550Z,47.20
2022-10-12T16:44:22.871Z,42.80
2022-10-12T16:47:06.011Z,34.10
2022-10-12T16:49:34.747Z,31.80
2022-10-12T16:52:04.406Z,27.90
2022-10-12T16:54:47.616Z,27.70
2022-10-12T16:57:29.901Z,27.80
2022-10-12T16:59:59.286Z,36.80
2022-10-12T17:02:28.423Z,46.40
2022-10-12T17:04:57.033Z,30.60
2022-10-12T17:07:27.112Z,45.60
2022-10-12T17:10:09.884Z,47.90
2022-10-12T17:12:38.542Z,60.80
2022-10-12T17:15:08.525Z,43.70
2022-10-12T17:17:37.210Z,36.70
2022-10-12T17:20:07.156Z,35.50
2022-10-12T17:22:35.854Z,35.20
2022-10-12T17:25:05.198Z,37.20
2022-10-12T17:27:34.618Z,31.40
2022-10-12T17:30:03.815Z,26.70
2022-10-12T17:32:46.783Z,36.30
2022-10-12T17:35:15.623Z,58.20
2022-10-12T17:37:44.311Z,51.50
2022-10-12T17:40:13.527Z,49.20
2022-10-12T17:42:56.241Z,48.70
2022-10-12T17:45:25.006Z,48.00
2022-10-12T17:48:08.231Z,42.40
2022-10-12T17:50:50.736Z,41.30
2022-10-12T17:53:19.656Z,38.90
2022-10-12T17:56:03.549Z,35.90
2022-10-12T17:58:45.831Z,42.00
2022-10-12T18:01:16.614Z,41.20
2022-10-12T18:04:04.971Z,38.10
2022-10-12T18:06:34.778Z,35.00
2022-10-12T18:09:05.670Z,36.00
2022-10-12T18:11:35.014Z,34.30
2022-10-12T18:14:17.427Z,34.50
2022-10-12T18:16:59.793Z,30.90
2022-10-12T18:19:28.863Z,35.20
2022-10-12T18:22:11.560Z,34.50
2022-10-12T18:24:41.226Z,32.60
2022-10-12T18:27:23.581Z,35.20
2022-10-12T18:29:52.496Z,35.30
2022-10-12T18:32:21.407Z,33.90
2022-10-12T18:35:03.923Z,34.00
2022-10-12T18:37:33.105Z,67.40
2022-10-12T18:40:02.097Z,57.20
2022-10-12T18:42:44.880Z,45.50
2022-10-12T18:45:14.378Z,40.70
2022-10-12T18:47:43.161Z,34.60
2022-10-12T18:50:12.570Z,31.20
2022-10-12T18:52:43.136Z,35.60
2022-10-12T18:55:12.074Z,36.60
2022-10-12T18:57:54.687Z,33.90
2022-10-12T19:00:23.792Z,42.80
2022-10-12T19:02:52.613Z,38.90
2022-10-12T19:05:21.290Z,34.10
2022-10-12T19:08:03.668Z,45.60
2022-10-12T19:10:33.820Z,53.50
2022-10-12T19:13:02.917Z,46.30
2022-10-12T19:15:32.449Z,55.60
2022-10-12T19:18:02.801Z,48.50
2022-10-12T19:20:33.888Z,54.40
2022-10-12T19:23:04.368Z,54.30
2022-10-12T19:25:39.303Z,45.70
2022-10-12T19:28:08.920Z,54.00
2022-10-12T19:30:40.569Z,49.30
2022-10-12T19:33:24.302Z,44.50
2022-10-12T19:35:55.266Z,55.20
2022-10-12T19:38:24.995Z,48.00
2022-10-12T19:41:08.356Z,60.00
2022-10-12T19:43:38.154Z,67.70
2022-10-12T19:46:11.759Z,55.10
2022-10-12T19:48:45.449Z,58.80
2022-10-12T19:51:14.539Z,45.10
2022-10-12T19:53:45.740Z,44.40
2022-10-12T19:56:30.407Z,44.70
2022-10-12T19:59:00.632Z,43.10
2022-10-12T20:01:36.220Z,46.40
2022-10-12T20:04:09.896Z,42.40
2022-10-12T20:06:39.513Z,46.40
2022-10-12T20:09:09.536Z,41.10
2022-10-12T20:11:38.908Z,37.10
2022-10-12T20:14:21.119Z,74.20
2022-10-12T20:16:51.006Z,94.30
2022-10-12T20:19:20.163Z,65.10
2022-10-12T20:21:49.350Z,50.10
2022-10-12T20:24:18.110Z,59.00
2022-10-12T20:26:47.343Z,38.30
2022-10-12T20:29:16.267Z,51.70
2022-10-12T20:31:58.648Z,41.60
2022-10-12T20:34:27.610Z,40.90
2022-10-12T20:37:11.263Z,32.80
2022-10-12T20:39:53.583Z,30.40
2022-10-12T20:42:35.893Z,36.40
2022-10-12T20:45:05.488Z,41.90
2022-10-12T20:47:34.367Z,41.50
2022-10-12T20:50:03.349Z,38.60
2022-10-12T20:52:32.020Z,48.40
2022-10-12T20:55:14.962Z,54.90
2022-10-12T20:57:57.361Z,35.70
2022-10-12T21:00:39.832Z,29.40
2022-10-12T21:03:22.219Z,28.50
2022-10-12T21:05:51.053Z,30.80
2022-10-12T21:08:20.072Z,24.40
2022-10-12T21:11:03.664Z,28.50
2022-10-12T21:13:34.587Z,27.70
2022-10-12T21:16:03.475Z,30.50
2022-10-12T21:18:37.650Z,24.80
2022-10-12T21:21:13.999Z,26.40
2022-10-12T21:23:45.233Z,32.00
2022-10-12T21:26:18.992Z,25.60
2022-10-12T21:28:48.121Z,28.30
2022-10-12T21:31:32.942Z,24.60
2022-10-12T21:34:15.508Z,35.90
2022-10-12T21:36:44.721Z,21.80
2022-10-12T21:39:16.269Z,25.20
2022-10-12T21:41:45.128Z,27.70
2022-10-12T21:44:27.462Z,22.50
2022-10-12T21:46:56.729Z,16.30
2022-10-12T21:49:25.354Z,23.60
2022-10-12T21:51:54.277Z,22.50
2022-10-12T21:54:23.148Z,27.40
2022-10-12T21:56:51.652Z,34.60
2022-10-12T21:59:20.208Z,19.60
2022-10-12T22:01:49.279Z,18.30
2022-10-12T22:04:31.634Z,19.40
2022-10-12T22:07:01.327Z,31.20
2022-10-12T22:09:44.078Z,23.10
2022-10-12T22:12:26.552Z,17.60
2022-10-12T22:14:55.371Z,18.00
2022-10-12T22:17:39.193Z,31.00
2022-10-12T22:20:21.751Z,27.20
2022-10-12T22:23:07.852Z,21.10
2022-10-12T22:25:50.312Z,27.90
2022-10-12T22:28:19.465Z,31.30
2022-10-12T22:30:48.432Z,26.20
2022-10-12T22:33:17.876Z,23.40
2022-10-12T22:36:01.739Z,30.60
2022-10-12T22:38:44.545Z,24.10
2022-10-12T22:41:16.480Z,18.90
2022-10-12T22:43:50.713Z,24.90
2022-10-12T22:46:20.893Z,17.20
2022-10-12T22:48:49.911Z,16.10
2022-10-12T22:51:35.146Z,14.70
2022-10-12T22:54:17.679Z,22.80
2022-10-12T22:56:48.190Z,22.50
2022-10-12T22:59:30.592Z,26.40
2022-10-12T23:01:59.686Z,32.60
2022-10-12T23:04:29.246Z,15.50
2022-10-12T23:07:12.273Z,29.60
2022-10-12T23:09:54.702Z,20.10
2022-10-12T23:12:37.786Z,20.00
2022-10-12T23:15:20.273Z,18.50
2022-10-12T23:18:04.986Z,23.20
2022-10-12T23:20:47.790Z,20.40
2022-10-12T23:23:16.829Z,17.20
2022-10-12T23:25:46.349Z,14.40
2022-10-12T23:28:17.738Z,12.60
2022-10-12T23:30:46.713Z,19.40
2022-10-12T23:33:29.570Z,19.30
2022-10-12T23:36:01.558Z,15.20
2022-10-12T23:38:32.266Z,19.70
2022-10-12T23:41:02.013Z,11.00
2022-10-12T23:43:44.503Z,16.30
2022-10-12T23:46:14.322Z,15.90
2022-10-12T23:48:57.487Z,18.60
2022-10-12T23:51:39.969Z,24.60
2022-10-12T23:54:09.655Z,17.10
2022-10-12T23:56:52.654Z,16.60
2022-10-12T23:59:21.976Z,16.20
